Time;durP1;ratioP1;P1;durP2;ratioP2;P2;SDS_P1;SDS_P2;PMS_P1;PMS_P2;Temp;Humidity;BMP_temperature;BMP_pressure;BME280_temperature;BME280_humidity;BME280_pressure;Samples;Min_cycle;Max_cycle;Signal;HPM_P1;HPM_P2
2024/04/30 00:00:47;;;;;;;7.85;2.35;;;13.40;57.60;;;9.09;100.00;95471.16;5299093;26;20012;-44
2024/04/30 00:03:14;;;;;;;6.82;2.15;;;13.40;57.60;;;9.07;100.00;95475.94;5302205;26;20662;-46
2024/04/30 00:05:39;;;;;;;11.20;1.95;;;13.40;57.60;;;9.00;100.00;95470.06;5296701;26;20459;-52
2024/04/30 00:08:06;;;;;;;6.88;2.17;;;13.30;57.50;;;9.01;100.00;95461.00;5291471;26;20017;-44
2024/04/30 00:10:31;;;;;;;8.13;2.40;;;13.30;58.10;;;9.03;100.00;95465.00;5295928;26;20496;-48
2024/04/30 00:12:57;;;;;;;7.03;1.60;;;13.30;57.50;;;9.04;100.00;95471.91;5307078;26;20016;-44
2024/04/30 00:15:23;;;;;;;4.82;2.35;;;13.30;57.60;;;9.06;100.00;95479.66;5290852;26;20020;-44
2024/04/30 00:17:49;;;;;;;5.90;2.20;;;13.30;57.50;;;9.01;100.00;95475.09;5300934;26;20009;-44
2024/04/30 00:20:15;;;;;;;7.43;2.10;;;13.30;57.50;;;9.00;100.00;95476.16;5291677;26;20009;-45
2024/04/30 00:22:40;;;;;;;7.25;2.58;;;13.30;57.50;;;8.98;100.00;95480.91;5299193;26;20023;-44
2024/04/30 00:25:06;;;;;;;8.60;2.40;;;13.20;57.50;;;8.93;100.00;95480.91;5295132;26;20005;-44
2024/04/30 00:27:32;;;;;;;4.97;2.10;;;13.30;57.70;;;8.91;100.00;95483.00;5301042;26;20010;-45
2024/04/30 00:29:58;;;;;;;10.52;2.90;;;13.20;57.60;;;8.88;100.00;95480.88;5293796;26;20005;-49
2024/04/30 00:32:24;;;;;;;4.45;2.50;;;13.20;57.60;;;8.75;100.00;95474.13;5293202;26;20013;-48
2024/04/30 00:34:49;;;;;;;6.20;2.65;;;13.20;57.70;;;8.77;100.00;95471.22;5292053;26;20326;-45
2024/04/30 00:37:15;;;;;;;7.00;2.55;;;13.20;57.80;;;8.75;100.00;95476.78;5264403;27;20016;-45
2024/04/30 00:39:41;;;;;;;6.20;2.20;;;13.10;57.80;;;8.67;100.00;95477.25;5295591;26;20027;-45
2024/04/30 00:42:07;;;;;;;11.65;2.70;;;13.10;57.90;;;8.70;100.00;95478.59;5296134;26;20349;-46
2024/04/30 00:44:33;;;;;;;6.68;2.42;;;13.10;58.00;;;8.65;100.00;95468.75;5299409;26;20033;-49
2024/04/30 00:46:59;;;;;;;9.25;2.67;;;13.10;58.10;;;8.53;100.00;95474.25;5296467;26;20024;-48
2024/04/30 00:49:26;;;;;;;7.20;2.65;;;13.00;58.10;;;8.55;100.00;95469.50;5294041;26;20020;-47
2024/04/30 00:51:52;;;;;;;9.65;2.83;;;13.00;58.20;;;8.57;100.00;95470.00;5294395;26;20494;-44
2024/04/30 00:54:18;;;;;;;5.75;2.50;;;13.00;58.20;;;8.56;100.00;95463.13;5295761;26;20013;-48
2024/04/30 00:56:45;;;;;;;10.02;2.80;;;13.00;58.30;;;8.52;100.00;95455.91;5299125;26;20009;-49
2024/04/30 00:59:11;;;;;;;10.38;2.50;;;13.00;58.50;;;8.63;100.00;95470.06;5301919;26;20009;-47
2024/04/30 01:01:37;;;;;;;8.30;2.65;;;13.00;58.50;;;8.71;100.00;95454.47;5297901;26;20376;-50
2024/04/30 01:04:04;;;;;;;9.95;3.00;;;13.00;58.70;;;8.79;100.00;95461.16;5306008;26;20090;-48
2024/04/30 01:06:29;;;;;;;9.13;2.45;;;13.10;58.80;;;8.85;100.00;95449.50;5328736;26;20032;-44
2024/04/30 01:08:55;;;;;;;7.05;3.05;;;13.10;58.80;;;8.95;100.00;95467.34;5296522;26;20009;-46
2024/04/30 01:11:21;;;;;;;8.23;2.90;;;13.20;58.90;;;9.01;100.00;95456.50;5294760;26;20017;-46
2024/04/30 01:13:47;;;;;;;5.68;2.50;;;13.30;59.00;;;9.12;100.00;95460.03;5295304;26;20028;-46
2024/04/30 01:16:13;;;;;;;5.45;3.30;;;13.30;58.90;;;9.24;100.00;95459.78;5295639;26;20040;-48
2024/04/30 01:18:38;;;;;;;4.85;2.67;;;13.40;59.00;;;9.27;100.00;95459.28;5299979;26;20020;-50
2024/04/30 01:21:05;;;;;;;6.25;2.92;;;13.40;58.90;;;9.30;100.00;95464.06;5298337;26;20009;-47
2024/04/30 01:23:30;;;;;;;7.57;2.78;;;13.50;59.00;;;9.29;100.00;95465.16;5292563;26;20356;-47
2024/04/30 01:25:56;;;;;;;9.63;3.25;;;13.50;58.90;;;9.30;100.00;95461.41;5300194;26;20032;-53
2024/04/30 01:28:22;;;;;;;9.85;3.10;;;13.60;58.90;;;9.30;100.00;95456.09;5294534;26;20017;-48
2024/04/30 01:30:48;;;;;;;6.90;2.90;;;13.50;58.90;;;9.32;100.00;95461.19;5299570;26;20011;-47
2024/04/30 01:33:15;;;;;;;6.38;2.95;;;13.60;59.00;;;9.22;100.00;95454.75;5286027;26;20017;-49
2024/04/30 01:35:44;;;;;;;5.85;2.90;;;13.60;59.00;;;9.30;100.00;95457.97;5297279;26;20020;-48
2024/04/30 01:38:10;;;;;;;6.20;2.72;;;13.60;59.00;;;9.27;100.00;95462.75;5319641;26;20438;-47
2024/04/30 01:40:36;;;;;;;6.18;2.78;;;13.60;59.00;;;9.27;100.00;95465.41;5294124;26;20009;-47
2024/04/30 01:43:02;;;;;;;4.90;2.92;;;13.60;59.00;;;9.16;100.00;95461.09;5288319;26;20377;-48
2024/04/30 01:45:27;;;;;;;5.53;3.05;;;13.60;59.00;;;9.15;100.00;95456.84;5287961;26;20009;-46
2024/04/30 01:47:53;;;;;;;8.98;3.20;;;13.50;59.00;;;9.14;100.00;95449.13;5291890;26;20009;-49
2024/04/30 01:50:19;;;;;;;5.82;3.47;;;13.50;59.00;;;9.12;100.00;95452.06;5292832;26;20082;-46
2024/04/30 01:52:45;;;;;;;6.63;2.60;;;13.50;59.10;;;9.02;100.00;95451.97;5295351;26;20360;-46
2024/04/30 01:55:11;;;;;;;8.15;2.90;;;13.40;59.20;;;9.01;100.00;95447.72;5292143;26;20486;-49
2024/04/30 01:57:38;;;;;;;6.00;3.28;;;13.40;59.30;;;8.97;100.00;95450.09;5290832;26;20025;-49
2024/04/30 02:00:05;;;;;;;8.70;3.38;;;13.40;60.00;;;8.93;100.00;95450.84;5296622;26;20020;-49
2024/04/30 02:02:31;;;;;;;8.23;3.47;;;13.30;59.40;;;8.95;100.00;95449.56;5298501;26;20009;-49
2024/04/30 02:04:56;;;;;;;5.20;2.90;;;13.20;59.50;;;8.93;100.00;95450.84;5302054;26;20023;-49
2024/04/30 02:07:23;;;;;;;6.57;3.03;;;13.30;59.60;;;8.92;100.00;95447.41;5296893;26;20108;-49
2024/04/30 02:09:49;;;;;;;7.03;3.25;;;13.20;59.60;;;8.87;100.00;95446.56;5305315;26;20013;-48
2024/04/30 02:12:15;;;;;;;6.03;3.00;;;13.20;59.60;;;8.80;100.00;95439.63;5299205;26;20020;-46
2024/04/30 02:14:41;;;;;;;5.40;2.92;;;13.20;59.70;;;8.77;100.00;95447.31;5300400;26;20009;-45
2024/04/30 02:17:07;;;;;;;4.55;3.17;;;13.10;59.70;;;8.69;100.00;95445.16;5298519;26;20024;-50
2024/04/30 02:19:32;;;;;;;9.85;3.75;;;13.10;60.40;;;8.53;100.00;95438.94;5293325;26;20021;-47
2024/04/30 02:21:58;;;;;;;7.50;3.70;;;13.00;59.80;;;8.51;100.00;95435.72;5298192;26;20013;-49
2024/04/30 02:24:25;;;;;;;8.73;3.67;;;13.00;59.80;;;8.49;100.00;95435.16;5296597;26;20017;-47
2024/04/30 02:26:50;;;;;;;7.60;3.30;;;12.90;59.90;;;8.46;100.00;95438.34;5303517;26;20020;-50
2024/04/30 02:29:16;;;;;;;9.20;3.72;;;12.90;60.00;;;8.42;100.00;95427.44;5294919;26;20388;-48
2024/04/30 02:34:27;;;;;;;5.35;3.35;;;12.90;60.20;;;8.35;100.00;95432.91;5290730;26;20013;-46
2024/04/30 02:36:57;;;;;;;10.10;3.83;;;12.80;60.10;;;8.37;100.00;95435.34;5298095;26;20009;-49
2024/04/30 02:39:23;;;;;;;10.80;3.30;;;12.80;60.40;;;8.42;100.00;95440.69;5296562;26;20006;-50
2024/04/30 02:41:50;;;;;;;8.15;3.70;;;12.80;60.30;;;8.31;100.00;95425.72;5296734;26;20375;-48
2024/04/30 02:44:16;;;;;;;8.18;3.25;;;12.80;60.30;;;8.33;100.00;95427.06;5292065;26;20019;-51
2024/04/30 02:46:42;;;;;;;9.35;3.35;;;12.80;60.40;;;8.35;100.00;95432.91;5303819;26;20021;-46
2024/04/30 02:49:08;;;;;;;9.05;3.40;;;12.80;60.40;;;8.33;100.00;95426.25;5292355;26;20093;-48
2024/04/30 02:51:34;;;;;;;8.23;3.38;;;12.80;60.50;;;8.37;100.00;95430.03;5300244;26;20041;-47
2024/04/30 02:54:00;;;;;;;7.78;3.30;;;12.80;60.50;;;8.30;100.00;95424.94;5289012;26;20353;-49
2024/04/30 02:56:26;;;;;;;7.45;3.92;;;12.70;60.50;;;8.35;100.00;95426.81;5299229;26;20018;-53
2024/04/30 02:58:51;;;;;;;5.85;3.30;;;12.80;60.60;;;8.34;100.00;95438.50;5296278;26;20009;-50
2024/04/30 03:01:17;;;;;;;6.78;3.50;;;12.80;60.60;;;8.29;100.00;95433.13;5298343;26;20013;-51
2024/04/30 03:03:43;;;;;;;7.85;3.40;;;12.70;60.50;;;8.24;100.00;95433.91;5296218;26;20005;-47
2024/04/30 03:06:10;;;;;;;8.50;3.38;;;12.70;60.60;;;8.11;100.00;95421.03;5289016;26;20359;-50
2024/04/30 03:08:38;;;;;;;8.60;3.50;;;12.60;61.30;;;8.15;100.00;95422.16;5294347;26;20748;-48
2024/04/30 03:11:05;;;;;;;8.15;3.58;;;12.60;60.70;;;8.10;100.00;95420.25;5296085;26;20472;-48
2024/04/30 03:13:31;;;;;;;7.97;4.05;;;12.60;60.70;;;8.07;100.00;95417.31;5301652;26;20025;-47
2024/04/30 03:15:57;;;;;;;7.85;3.42;;;12.50;60.70;;;8.06;100.00;95413.06;5295401;26;20008;-46
2024/04/30 03:18:23;;;;;;;12.20;4.25;;;12.50;60.80;;;8.01;100.00;95410.34;5295062;26;20006;-47
2024/04/30 03:20:49;;;;;;;9.05;3.58;;;12.50;60.90;;;7.93;100.00;95414.28;5297355;26;20005;-48
2024/04/30 03:23:15;;;;;;;8.93;3.63;;;12.40;60.80;;;7.87;100.00;95408.13;5293105;26;20564;-46
2024/04/30 03:25:41;;;;;;;7.70;3.80;;;12.30;60.80;;;7.82;100.00;95423.97;5303482;26;20048;-51
2024/04/30 03:28:07;;;;;;;7.47;3.97;;;12.30;60.80;;;7.72;100.00;95415.13;5295892;26;20006;-46
2024/04/30 03:30:32;;;;;;;6.68;3.75;;;12.20;60.90;;;7.65;100.00;95420.63;5302810;26;20020;-50
2024/04/30 03:32:59;;;;;;;8.70;4.00;;;12.20;61.10;;;7.51;100.00;95422.06;5288336;26;20464;-46
2024/04/30 03:35:26;;;;;;;9.07;4.10;;;12.10;61.10;;;7.51;100.00;95417.56;5274015;26;20013;-47
2024/04/30 03:37:53;;;;;;;7.75;3.38;;;12.10;61.30;;;7.40;100.00;95414.00;5298113;26;20005;-47
2024/04/30 03:40:19;;;;;;;12.68;4.05;;;12.00;61.30;;;7.36;100.00;95410.25;5302678;26;20024;-47
2024/04/30 03:42:44;;;;;;;10.30;4.13;;;11.90;61.30;;;7.27;100.00;95408.25;5298209;26;20361;-47
2024/04/30 03:45:10;;;;;;;8.18;3.92;;;11.90;61.40;;;7.26;100.00;95401.38;5303169;26;20032;-48
2024/04/30 03:47:37;;;;;;;8.10;3.92;;;11.90;61.60;;;7.22;100.00;95402.94;5298352;26;20435;-52
2024/04/30 03:50:03;;;;;;;6.13;4.22;;;11.80;61.70;;;7.19;100.00;95404.22;5299353;26;20013;-46
2024/04/30 03:52:29;;;;;;;7.72;3.92;;;11.80;61.80;;;7.18;100.00;95407.94;5300340;26;20468;-47
2024/04/30 03:54:55;;;;;;;9.05;3.72;;;11.70;62.00;;;7.10;100.00;95398.53;5301989;26;20049;-45
2024/04/30 03:57:20;;;;;;;12.95;4.38;;;11.60;62.00;;;7.07;100.00;95401.69;5299322;26;20028;-49
2024/04/30 03:59:46;;;;;;;5.68;4.07;;;11.60;62.00;;;7.02;100.00;95393.69;5298711;26;20005;-48
2024/04/30 04:02:12;;;;;;;12.30;4.20;;;11.60;62.10;;;6.99;100.00;95404.78;5300076;26;20475;-48
2024/04/30 04:04:38;;;;;;;7.32;3.83;;;11.50;62.00;;;6.95;100.00;95395.69;5302606;26;20017;-49
2024/04/30 04:07:04;;;;;;;7.68;4.50;;;11.50;62.10;;;6.95;100.00;95398.34;5302308;26;20019;-48
2024/04/30 04:09:30;;;;;;;5.97;4.20;;;11.50;62.30;;;6.89;100.00;95402.81;5301303;26;20009;-47
2024/04/30 04:14:46;;;;;;;11.18;4.45;;;11.40;62.50;;;6.84;100.00;95409.88;5306591;26;20019;-49
2024/04/30 04:17:17;;;;;;;7.85;4.25;;;11.40;62.60;;;6.83;100.00;95417.03;5301548;26;20012;-49
2024/04/30 04:19:45;;;;;;;9.25;3.90;;;11.30;62.70;;;6.76;100.00;95410.28;5302128;26;20013;-50
2024/04/30 04:22:11;;;;;;;9.55;4.22;;;11.30;62.70;;;6.65;100.00;95412.81;5270143;27;20009;-50
2024/04/30 04:24:36;;;;;;;8.02;4.78;;;11.30;62.70;;;6.65;100.00;95409.34;5302253;26;20023;-49
2024/04/30 04:27:04;;;;;;;10.50;4.88;;;11.20;62.60;;;6.64;100.00;95415.69;5301186;26;20041;-49
2024/04/30 04:29:32;;;;;;;7.10;4.47;;;11.20;62.70;;;6.58;100.00;95414.00;5300430;26;20375;-49
2024/04/30 04:31:58;;;;;;;8.13;4.40;;;11.20;62.70;;;6.56;100.00;95411.63;5299651;26;20025;-50
2024/04/30 04:34:25;;;;;;;9.80;4.18;;;11.20;62.80;;;6.60;100.00;95411.94;5315199;26;20475;-50
2024/04/30 04:36:51;;;;;;;8.20;4.18;;;11.20;62.90;;;6.62;100.00;95409.84;5302194;26;20009;-53
2024/04/30 04:39:17;;;;;;;8.75;4.78;;;11.20;62.90;;;6.63;100.00;95414.09;5298864;26;20009;-51
2024/04/30 04:41:43;;;;;;;7.25;4.30;;;11.20;62.90;;;6.63;100.00;95414.09;5301297;26;20078;-55
2024/04/30 04:44:09;;;;;;;7.10;5.05;;;11.20;63.00;;;6.68;100.00;95404.38;5297001;26;20046;-50
2024/04/30 04:46:35;;;;;;;11.63;5.10;;;11.20;63.10;;;6.73;100.00;95414.22;5304044;26;20028;-49
2024/04/30 04:49:01;;;;;;;7.15;4.72;;;11.20;63.10;;;6.69;100.00;95416.56;5300931;26;20375;-50
2024/04/30 04:51:32;;;;;;;12.73;5.32;;;11.30;63.30;;;6.76;100.00;95420.88;5299879;26;20009;-49
2024/04/30 04:53:58;;;;;;;10.60;4.97;;;11.30;63.40;;;6.83;100.00;95418.84;5301545;26;20009;-50
2024/04/30 04:56:24;;;;;;;7.47;4.55;;;11.40;63.50;;;6.96;100.00;95415.88;5300193;26;20013;-50
2024/04/30 04:58:50;;;;;;;8.10;4.32;;;11.50;63.50;;;7.09;100.00;95418.16;5301569;26;20426;-56
2024/04/30 05:01:20;;;;;;;7.75;4.70;;;11.60;63.50;;;7.21;100.00;95422.50;5295649;26;20090;-54
2024/04/30 05:03:47;;;;;;;5.82;4.35;;;11.70;63.70;;;7.31;100.00;95422.66;5294328;26;20005;-51
2024/04/30 05:06:13;;;;;;;10.82;4.70;;;11.80;63.70;;;7.48;100.00;95423.34;5301604;26;20099;-52
2024/04/30 05:08:39;;;;;;;8.57;4.72;;;11.90;63.70;;;7.63;100.00;95415.56;5300553;26;20567;-52
2024/04/30 05:11:22;;;;;;;8.30;4.88;;;12.10;63.70;;;7.80;100.00;95423.44;5297897;26;20009;-52
2024/04/30 05:13:48;;;;;;;11.05;4.10;;;12.30;63.90;;;8.01;100.00;95427.06;5299363;26;20013;-56
2024/04/30 05:16:14;;;;;;;6.03;3.85;;;12.40;63.50;;;8.17;100.00;95427.19;5301628;26;20023;-51
2024/04/30 05:18:40;;;;;;;9.07;3.88;;;12.60;63.40;;;8.27;100.00;95422.78;5301463;26;20009;-51
2024/04/30 05:21:06;;;;;;;8.95;3.97;;;12.80;63.40;;;8.53;100.00;95417.69;5299373;26;20357;-51
2024/04/30 05:23:32;;;;;;;9.07;3.40;;;13.10;63.30;;;8.79;100.00;95422.09;5293731;26;20017;-53
2024/04/30 05:25:58;;;;;;;7.00;3.60;;;13.30;63.10;;;9.02;100.00;95418.25;5285690;26;20090;-51
2024/04/30 05:28:23;;;;;;;7.93;3.50;;;13.60;62.90;;;9.33;100.00;95421.03;5297067;26;20352;-54
2024/04/30 05:30:49;;;;;;;8.40;3.33;;;13.90;62.80;;;9.49;100.00;95424.53;5301063;26;20468;-51
2024/04/30 05:33:15;;;;;;;6.43;3.92;;;14.10;62.50;;;9.80;100.00;95430.75;5299308;26;20021;-52
2024/04/30 05:35:41;;;;;;;7.45;3.20;;;14.40;62.10;;;10.08;100.00;95429.47;5300469;26;20013;-51
2024/04/30 05:38:07;;;;;;;4.93;3.65;;;14.70;61.80;;;10.40;100.00;95434.59;5299633;26;20431;-53
2024/04/30 05:40:32;;;;;;;5.93;3.40;;;15.00;61.40;;;10.65;100.00;95427.63;5302692;26;20048;-52
2024/04/30 05:42:58;;;;;;;5.53;3.15;;;15.40;61.10;;;10.88;100.00;95436.94;5303829;26;20040;-50
2024/04/30 05:45:24;;;;;;;5.03;3.40;;;15.70;60.60;;;11.07;100.00;95427.28;5306812;26;20041;-51
2024/04/30 05:47:50;;;;;;;6.68;3.30;;;16.00;60.10;;;11.39;100.00;95436.78;5304530;26;20005;-51
2024/04/30 05:50:18;;;;;;;5.10;2.75;;;16.30;59.80;;;11.72;97.70;95432.63;5302774;26;20017;-51
2024/04/30 05:52:44;;;;;;;5.82;3.78;;;16.70;59.40;;;12.00;95.24;95423.16;5303202;26;20005;-54
2024/04/30 05:55:09;;;;;;;5.50;2.92;;;17.00;58.90;;;12.29;92.27;95432.31;5303850;26;20019;-52
2024/04/30 05:57:35;;;;;;;4.43;2.90;;;17.30;58.40;;;12.57;91.38;95423.53;5295423;26;20025;-52
2024/04/30 06:00:02;;;;;;;7.47;3.10;;;17.70;57.90;;;12.83;87.87;95431.31;5304429;26;20009;-47
2024/04/30 06:02:28;;;;;;;5.30;3.05;;;18.00;57.40;;;13.10;87.36;95426.22;5302228;26;20009;-50
2024/04/30 06:04:54;;;;;;;5.57;3.10;;;18.30;56.90;;;13.39;85.30;95434.22;5304039;26;20075;-50
2024/04/30 06:07:19;;;;;;;8.90;3.40;;;18.70;56.40;;;13.64;83.46;95443.81;5303831;26;20009;-51
2024/04/30 06:09:45;;;;;;;5.65;3.42;;;19.00;55.90;;;13.81;81.46;95440.66;5300620;26;20499;-48
2024/04/30 06:12:11;;;;;;;6.43;2.97;;;19.30;55.30;;;13.93;80.13;95434.88;5305807;26;20014;-49
2024/04/30 06:14:37;;;;;;;7.03;3.50;;;19.60;54.60;;;14.14;78.83;95431.91;5301321;26;20127;-50
2024/04/30 06:17:03;;;;;;;5.82;3.13;;;19.90;54.10;;;14.40;77.79;95429.66;5304344;26;20024;-50
2024/04/30 06:19:29;;;;;;;6.82;3.22;;;20.20;53.60;;;14.61;77.19;95438.19;5303776;26;20017;-51
2024/04/30 06:21:54;;;;;;;3.95;3.13;;;20.50;53.00;;;14.88;75.40;95434.78;5302016;26;20024;-50
2024/04/30 06:24:20;;;;;;;10.90;3.38;;;20.90;52.60;;;15.04;74.68;95425.34;5303391;26;20005;-49
2024/04/30 06:26:46;;;;;;;3.85;2.80;;;21.10;52.00;;;15.39;73.69;95421.22;5302854;26;20033;-50
2024/04/30 06:29:12;;;;;;;7.47;2.90;;;21.40;51.40;;;15.71;71.54;95422.22;5303850;26;20019;-51
2024/04/30 06:31:38;;;;;;;5.88;3.00;;;21.80;51.00;;;16.03;71.43;95423.16;5307229;26;21455;-52
2024/04/30 06:34:04;;;;;;;8.20;3.25;;;22.10;50.40;;;16.26;69.91;95408.63;5260000;27;20010;-50
2024/04/30 06:36:30;;;;;;;7.57;3.08;;;22.40;49.90;;;16.47;68.08;95416.22;5270294;26;20120;-52
2024/04/30 06:38:56;;;;;;;4.50;2.97;;;22.70;49.30;;;16.67;67.66;95418.41;5296022;26;20019;-49
2024/04/30 06:41:22;;;;;;;4.35;2.85;;;23.00;48.70;;;16.83;67.12;95416.19;5303552;26;20017;-50
2024/04/30 06:43:47;;;;;;;5.93;3.50;;;23.20;48.10;;;17.10;66.66;95409.81;5302767;26;20009;-52
2024/04/30 06:46:13;;;;;;;6.88;3.20;;;23.50;47.60;;;17.43;65.02;95412.16;5304217;26;20027;-49
2024/04/30 06:48:39;;;;;;;6.85;3.20;;;23.70;47.10;;;17.52;64.56;95413.78;5302982;26;20013;-49
2024/04/30 06:51:05;;;;;;;9.88;3.60;;;23.90;46.70;;;17.50;65.05;95420.59;5301194;26;20364;-51
2024/04/30 06:53:31;;;;;;;5.45;3.05;;;24.10;46.20;;;17.61;64.22;95413.00;5265836;26;20016;-54
2024/04/30 06:55:57;;;;;;;6.70;3.20;;;24.30;45.70;;;17.94;63.29;95411.50;5293029;26;20043;-50
2024/04/30 06:58:22;;;;;;;4.15;2.88;;;24.50;45.30;;;18.38;61.81;95414.22;5293312;26;20009;-50
2024/04/30 07:00:48;;;;;;;5.72;3.10;;;24.80;45.10;;;18.63;60.42;95412.63;5303438;26;20016;-52
2024/04/30 07:03:14;;;;;;;7.35;3.25;;;25.10;44.60;;;18.91;58.83;95408.47;5301205;26;20009;-55
2024/04/30 07:05:40;;;;;;;7.13;3.08;;;25.40;44.10;;;19.27;58.57;95406.44;5302470;26;20020;-51
2024/04/30 07:08:07;;;;;;;13.65;4.00;;;25.70;43.80;;;19.70;56.21;95402.78;5301896;26;20020;-52
2024/04/30 07:10:33;;;;;;;14.57;3.70;;;26.00;43.20;;;20.04;54.60;95397.13;5300485;26;20634;-52
2024/04/30 07:13:01;;;;;;;8.27;3.28;;;26.30;42.70;;;20.31;53.81;95395.03;5302493;26;20013;-49
2024/04/30 07:15:27;;;;;;;6.55;2.83;;;26.60;42.10;;;20.66;49.19;95392.84;5301755;26;20414;-57
2024/04/30 07:17:55;;;;;;;8.75;2.85;;;27.00;41.10;;;20.87;49.04;95387.38;5303279;26;20041;-56
2024/04/30 07:20:21;;;;;;;8.45;3.03;;;27.30;40.40;;;21.14;47.86;95391.38;5301673;26;20017;-55
2024/04/30 07:22:47;;;;;;;7.93;2.88;;;27.50;39.50;;;21.39;44.61;95391.44;5302377;26;20009;-53
2024/04/30 07:25:13;;;;;;;7.90;2.80;;;27.80;38.70;;;21.49;44.42;95393.69;5303193;26;20013;-57
2024/04/30 07:27:38;;;;;;;13.23;3.70;;;28.00;37.80;;;21.59;43.31;95377.00;5301588;26;20483;-56
2024/04/30 07:30:05;;;;;;;8.50;3.40;;;28.20;37.30;;;21.75;45.03;95382.50;5303099;26;20031;-53
2024/04/30 07:32:31;;;;;;;6.35;2.80;;;28.30;36.80;;;21.88;42.87;95377.84;5299689;26;20471;-59
2024/04/30 07:34:57;;;;;;;9.80;3.00;;;28.50;36.10;;;22.24;42.25;95387.84;5302619;26;20017;-56
2024/04/30 07:37:23;;;;;;;7.13;3.08;;;28.60;35.60;;;22.48;41.63;95388.91;5302318;26;20052;-53
2024/04/30 07:39:49;;;;;;;7.22;2.50;;;28.80;35.20;;;22.77;40.45;95385.81;5301698;26;20024;-53
2024/04/30 07:42:15;;;;;;;7.32;3.28;;;29.00;34.50;;;22.89;39.99;95381.47;5302726;26;20023;-56
2024/04/30 07:44:41;;;;;;;14.15;3.25;;;29.20;34.10;;;23.04;39.11;95373.38;5293152;26;20013;-56
2024/04/30 07:47:06;;;;;;;14.88;3.25;;;29.40;33.60;;;23.29;39.20;95370.50;5302804;26;20025;-55
2024/04/30 07:49:32;;;;;;;15.40;3.88;;;29.70;33.20;;;23.57;38.33;95370.41;5253418;26;20009;-53
2024/04/30 07:51:58;;;;;;;10.52;2.83;;;29.90;32.70;;;23.16;38.12;95374.41;5299803;26;20016;-57
2024/04/30 07:54:24;;;;;;;10.85;2.90;;;30.00;32.10;;;23.40;37.91;95374.25;5302730;26;20013;-57
2024/04/30 07:56:50;;;;;;;11.20;3.05;;;30.20;31.80;;;23.54;37.69;95371.09;5285283;26;20013;-56
2024/04/30 07:59:15;;;;;;;14.55;3.53;;;30.30;31.20;;;23.55;36.67;95373.44;5302935;26;20013;-57
2024/04/30 08:01:41;;;;;;;9.63;3.20;;;30.40;30.80;;;23.50;38.63;95376.44;5301873;26;20522;-53
2024/04/30 08:04:07;;;;;;;13.00;3.35;;;30.40;30.50;;;23.38;37.17;95375.72;5299991;26;20016;-56
2024/04/30 08:06:33;;;;;;;8.85;3.17;;;30.50;30.30;;;23.52;38.40;95376.09;5301929;26;20024;-56
2024/04/30 08:08:59;;;;;;;14.18;3.33;;;30.50;30.30;;;23.75;36.43;95376.25;5301305;26;20028;-50
2024/04/30 08:11:24;;;;;;;9.75;3.30;;;30.60;30.00;;;24.06;37.86;95380.81;5301809;26;20468;-54
2024/04/30 08:13:50;;;;;;;15.20;3.47;;;30.80;30.00;;;24.17;36.79;95381.84;5300948;26;20028;-52
2024/04/30 08:16:16;;;;;;;10.10;3.92;;;31.00;29.80;;;24.68;37.04;95376.28;5302403;26;20020;-55
2024/04/30 08:18:42;;;;;;;8.20;2.97;;;31.10;29.80;;;24.25;37.40;95363.72;5302202;26;20094;-53
2024/04/30 08:21:08;;;;;;;13.85;3.33;;;31.20;29.60;;;24.59;36.86;95361.31;5300414;26;20016;-54
2024/04/30 08:23:34;;;;;;;10.20;3.10;;;31.40;29.50;;;24.80;36.63;95367.19;5301633;26;20053;-53
2024/04/30 08:25:59;;;;;;;10.20;3.20;;;31.50;29.30;;;25.00;36.15;95367.13;5300890;26;20016;-53
2024/04/30 08:28:25;;;;;;;11.75;3.15;;;31.70;29.20;;;25.23;36.14;95359.78;5290842;26;20483;-55
2024/04/30 08:30:51;;;;;;;11.25;3.40;;;31.80;29.10;;;25.29;37.09;95363.78;5302996;26;20001;-55
2024/04/30 08:33:17;;;;;;;11.23;3.15;;;32.10;29.10;;;25.68;35.34;95355.44;5305171;26;20081;-55
2024/04/30 08:35:43;;;;;;;10.48;2.70;;;32.20;28.90;;;25.63;35.87;95361.19;5310397;26;20021;-55
2024/04/30 08:38:11;;;;;;;9.77;3.38;;;32.50;28.80;;;25.79;35.71;95356.38;5300815;26;20029;-53
2024/04/30 08:40:37;;;;;;;9.35;3.15;;;32.60;28.60;;;25.86;34.99;95357.69;5294600;26;20009;-52
2024/04/30 08:43:04;;;;;;;12.65;3.47;;;32.70;28.40;;;26.06;33.94;95359.09;5305087;26;20021;-56
2024/04/30 08:45:32;;;;;;;8.20;3.20;;;32.80;28.20;;;26.39;33.60;95354.88;5301614;26;20019;-56
2024/04/30 08:48:03;;;;;;;9.75;3.00;;;32.90;27.90;;;26.94;34.19;95346.91;5264887;27;20136;-53
2024/04/30 08:50:35;;;;;;;10.60;3.17;;;33.10;28.00;;;27.15;32.87;95351.81;5299846;26;20009;-54
2024/04/30 08:53:08;;;;;;;10.35;2.95;;;33.40;27.80;;;27.13;33.13;95354.09;5258322;27;20506;-52
2024/04/30 08:55:36;;;;;;;11.65;3.35;;;33.60;27.70;;;27.45;32.16;95355.19;5299643;26;20005;-53
2024/04/30 08:58:02;;;;;;;14.80;3.58;;;33.90;27.50;;;27.02;32.31;95345.03;5253080;27;20010;-56
2024/04/30 09:00:28;;;;;;;15.05;3.45;;;34.10;27.10;;;27.20;30.98;95343.25;5297502;26;20052;-54
2024/04/30 09:03:01;;;;;;;9.18;3.22;;;34.20;26.60;;;27.36;30.06;95348.47;5298936;26;20013;-57
2024/04/30 09:05:31;;;;;;;11.70;3.35;;;34.30;26.20;;;27.59;30.56;95340.84;5285093;26;20010;-54
2024/04/30 09:07:59;;;;;;;13.65;3.83;;;34.40;26.00;;;27.82;30.25;95348.81;5256266;27;20391;-55
2024/04/30 09:10:25;;;;;;;8.73;3.00;;;34.50;25.90;;;27.96;30.64;95334.47;5294364;26;20016;-52
2024/04/30 09:13:01;;;;;;;13.00;3.35;;;34.50;25.90;;;28.41;29.43;95337.81;5298027;26;20001;-54
2024/04/30 09:15:28;;;;;;;11.50;3.30;;;34.60;25.50;;;28.75;28.15;95343.03;5295810;26;20015;-51
2024/04/30 09:18:08;;;;;;;8.70;2.92;;;34.80;25.40;;;28.99;27.35;95336.81;5308648;26;20005;-51
2024/04/30 09:20:46;;;;;;;12.40;3.38;;;34.90;25.10;;;29.05;26.79;95343.50;5307933;26;20020;-57
2024/04/30 09:23:12;;;;;;;11.30;3.22;;;35.00;24.80;;;29.15;27.61;95330.22;5302861;26;20010;-55
2024/04/30 09:25:38;;;;;;;10.90;3.00;;;35.10;24.80;;;29.14;26.55;95331.34;5306889;26;20009;-52
2024/04/30 09:28:14;;;;;;;13.50;3.45;;;35.30;24.50;;;29.30;28.16;95323.53;5307005;26;20016;-55
2024/04/30 09:30:43;;;;;;;16.50;3.90;;;35.40;24.50;;;29.12;26.95;95320.00;5308274;26;20005;-56
2024/04/30 09:33:10;;;;;;;12.80;3.70;;;35.60;24.10;;;28.90;26.38;95321.91;5306474;26;20005;-55
2024/04/30 09:35:36;;;;;;;11.93;3.20;;;35.60;23.70;;;28.85;25.62;95317.59;5278067;26;20001;-56
2024/04/30 09:38:07;;;;;;;15.55;3.70;;;35.60;23.40;;;28.91;26.09;95313.28;5306557;26;20016;-56
2024/04/30 09:40:35;;;;;;;15.23;4.13;;;35.70;23.10;;;29.05;26.60;95316.09;5308092;26;20001;-57
2024/04/30 09:43:02;;;;;;;15.75;3.70;;;35.70;23.10;;;29.24;26.05;95322.38;5307673;26;20041;-56
2024/04/30 09:45:30;;;;;;;14.75;3.53;;;35.80;23.00;;;29.35;25.14;95311.41;5303171;26;20009;-52
2024/04/30 09:47:56;;;;;;;11.60;3.60;;;35.90;22.90;;;29.63;25.23;95307.88;5308126;26;20370;-55
2024/04/30 09:50:23;;;;;;;19.52;3.97;;;36.00;22.90;;;29.64;25.34;95301.97;5304884;26;20029;-54
2024/04/30 09:52:50;;;;;;;14.25;3.30;;;36.20;23.30;;;29.77;25.01;95299.59;5308083;26;20330;-55
2024/04/30 09:55:18;;;;;;;17.83;3.95;;;36.30;22.60;;;29.95;24.33;95292.09;5308313;26;20001;-53
2024/04/30 09:57:48;;;;;;;12.80;3.75;;;36.50;22.50;;;29.99;25.93;95294.84;5301647;26;20005;-57
2024/04/30 10:00:16;;;;;;;13.55;3.83;;;36.70;22.40;;;29.87;25.63;95292.53;5296857;26;20506;-57
2024/04/30 10:02:49;;;;;;;11.02;3.28;;;36.80;22.40;;;29.97;26.10;95286.22;5331625;26;20383;-55
2024/04/30 10:05:48;;;;;;;12.60;3.85;;;36.80;22.40;;;30.18;24.83;95282.63;5284003;27;20082;-55
2024/04/30 10:08:22;;;;;;;11.13;3.55;;;36.90;22.30;;;30.72;25.04;95277.66;5316639;26;20031;-57
2024/04/30 10:11:11;;;;;;;13.18;3.50;;;37.20;22.40;;;30.92;25.28;95277.16;5307848;26;20015;-56
2024/04/30 10:13:49;;;;;;;12.85;3.42;;;37.40;22.40;;;31.09;25.47;95268.78;5354772;21;20003;-50
2024/04/30 10:16:16;;;;;;;14.02;3.65;;;37.60;22.50;;;30.32;25.57;95266.09;5354335;26;20471;-47
2024/04/30 10:18:42;;;;;;;12.02;3.90;;;37.70;22.20;;;29.79;25.95;95258.03;5358698;26;20122;-47
2024/04/30 10:21:10;;;;;;;15.25;4.20;;;37.60;22.20;;;30.06;25.50;95256.38;5358510;26;20004;-49